createdAt,value
2018-04-23T00:00:31.163Z,15.19
2018-04-23T00:01:10.191Z,15.09
2018-04-23T00:02:10.223Z,15.08
2018-04-23T00:03:10.155Z,15.01
2018-04-23T00:04:10.180Z,14.93
2018-04-23T00:05:10.177Z,14.99
2018-04-23T00:06:31.329Z,15.02
2018-04-23T00:07:10.205Z,14.91
2018-04-23T00:08:10.147Z,14.86
2018-04-23T00:09:10.203Z,14.84
2018-04-23T00:10:10.126Z,14.80
2018-04-23T00:11:10.290Z,14.81
2018-04-23T00:12:31.134Z,14.80
2018-04-23T00:13:10.116Z,14.83
2018-04-23T00:14:10.335Z,14.80
2018-04-23T00:15:10.150Z,14.83
2018-04-23T00:16:10.417Z,14.78
2018-04-23T00:17:10.230Z,14.67
2018-04-23T00:18:31.117Z,14.87
2018-04-23T00:19:10.117Z,14.74
2018-04-23T00:20:10.099Z,14.78
2018-04-23T00:21:10.108Z,14.69
2018-04-23T00:22:10.228Z,14.64
2018-04-23T00:23:10.241Z,14.75
2018-04-23T00:24:31.196Z,14.71
2018-04-23T00:25:10.231Z,14.65
2018-04-23T00:26:10.252Z,14.69
2018-04-23T00:27:10.183Z,14.53
2018-04-23T00:28:10.174Z,14.54
2018-04-23T00:29:10.107Z,14.53
2018-04-23T00:30:31.088Z,14.47
2018-04-23T00:31:10.075Z,14.43
2018-04-23T00:32:10.223Z,14.39
2018-04-23T00:33:10.049Z,14.42
2018-04-23T00:34:10.101Z,14.24
2018-04-23T00:35:10.063Z,14.20
2018-04-23T00:36:31.102Z,14.29
2018-04-23T00:37:10.050Z,14.17
2018-04-23T00:38:10.238Z,14.24
2018-04-23T00:39:10.285Z,14.28
2018-04-23T00:40:10.246Z,14.17
2018-04-23T00:41:10.058Z,14.24
2018-04-23T00:42:31.040Z,14.14
2018-04-23T00:43:10.037Z,14.21
2018-04-23T00:44:10.041Z,14.21
2018-04-23T00:45:10.038Z,14.24
2018-04-23T00:46:10.062Z,14.25
2018-04-23T00:47:10.924Z,14.28
2018-04-23T00:48:31.020Z,14.20
2018-04-23T00:49:10.130Z,14.21
2018-04-23T00:50:10.038Z,14.24
2018-04-23T00:51:09.991Z,14.17
2018-04-23T00:52:10.248Z,14.20
2018-04-23T00:53:10.032Z,14.28
2018-04-23T00:54:30.996Z,14.27
2018-04-23T00:55:09.994Z,14.21
2018-04-23T00:56:10.114Z,14.14
2018-04-23T00:57:10.086Z,14.13
2018-04-23T00:58:10.187Z,14.10
2018-04-23T00:59:10.206Z,14.09
2018-04-23T01:00:31.112Z,14.14
2018-04-23T01:01:10.189Z,14.21
2018-04-23T01:02:10.196Z,14.12
2018-04-23T01:03:09.980Z,14.21
2018-04-23T01:04:10.027Z,14.14
2018-04-23T01:05:09.974Z,14.19
2018-04-23T01:06:31.003Z,14.12
2018-04-23T01:07:09.986Z,14.01
2018-04-23T01:08:09.990Z,14.12
2018-04-23T01:09:10.062Z,14.02
2018-04-23T01:10:09.944Z,13.99
2018-04-23T01:11:09.953Z,13.91
2018-04-23T01:12:30.957Z,13.89
2018-04-23T01:13:09.989Z,13.80
2018-04-23T01:14:10.059Z,13.76
2018-04-23T01:15:09.953Z,13.70
2018-04-23T01:16:10.106Z,13.62
2018-04-23T01:17:10.091Z,13.62
2018-04-23T01:18:30.975Z,13.54
2018-04-23T01:19:10.119Z,13.69
2018-04-23T01:20:09.931Z,13.87
2018-04-23T01:21:09.905Z,13.84
2018-04-23T01:22:09.936Z,13.88
2018-04-23T01:23:09.937Z,13.88
2018-04-23T01:24:30.927Z,13.76
2018-04-23T01:25:09.924Z,13.81
2018-04-23T01:26:09.932Z,13.84
2018-04-23T01:27:09.905Z,13.83
2018-04-23T01:28:09.883Z,13.77
2018-04-23T01:29:10.064Z,13.77
2018-04-23T02:02:07.853Z,13.27
2018-04-23T02:03:07.828Z,13.29
2018-04-23T02:05:00.855Z,13.24
2018-04-23T02:06:00.776Z,13.15
2018-04-23T02:07:53.751Z,13.02
2018-04-23T02:08:53.728Z,13.03
2018-04-23T02:10:46.707Z,13.04
2018-04-23T02:11:46.674Z,12.93
2018-04-23T02:13:39.627Z,12.97
2018-04-23T02:14:39.604Z,12.95
2018-04-23T02:16:32.623Z,13.15
2018-04-23T02:17:32.578Z,13.29
2018-04-23T02:19:26.500Z,13.38
2018-04-23T02:20:26.482Z,13.41
2018-04-23T02:22:19.428Z,13.76
2018-04-23T02:23:19.398Z,13.65
2018-04-23T02:25:12.414Z,13.87
2018-04-23T02:26:12.390Z,13.89
2018-04-23T02:28:05.328Z,13.96
2018-04-23T02:29:05.313Z,13.96
2018-04-23T02:30:58.330Z,13.94
2018-04-23T02:31:58.312Z,13.96
2018-04-23T02:33:51.253Z,13.92
2018-04-23T02:34:51.241Z,14.02
2018-04-23T02:36:44.228Z,14.07
2018-04-23T02:37:44.205Z,14.02
2018-04-23T02:39:37.264Z,14.07
2018-04-23T02:40:37.247Z,14.04
2018-04-23T02:42:30.133Z,14.13
2018-04-23T02:43:30.117Z,14.14
2018-04-23T02:45:23.070Z,14.12
2018-04-23T02:46:23.042Z,14.16
2018-04-23T02:48:16.064Z,14.14
2018-04-23T02:49:16.041Z,14.01
2018-04-23T02:52:00.093Z,13.99
2018-04-23T02:53:00.079Z,14.02
2018-04-23T02:54:53.018Z,14.01
2018-04-23T02:55:53.015Z,13.98
2018-04-23T02:57:45.998Z,13.99
2018-04-23T02:58:45.978Z,13.94
2018-04-23T03:00:38.961Z,13.96
2018-04-23T03:01:38.905Z,13.96
2018-04-23T03:03:31.948Z,13.92
2018-04-23T03:04:31.920Z,13.92
2018-04-23T03:07:15.919Z,13.84
2018-04-23T03:08:15.893Z,13.89
2018-04-23T03:10:08.913Z,13.80
2018-04-23T03:11:08.797Z,13.88
2018-04-23T03:13:01.882Z,13.92
2018-04-23T03:14:01.824Z,13.80
2018-04-23T03:15:54.718Z,13.79
2018-04-23T03:16:54.693Z,13.88
2018-04-23T03:18:47.642Z,13.91
2018-04-23T03:19:47.631Z,13.83
2018-04-23T03:21:40.550Z,13.80
2018-04-23T03:22:40.516Z,13.84
2018-04-23T03:24:33.553Z,13.76
2018-04-23T03:25:33.537Z,13.77
2018-04-23T03:28:17.589Z,13.76
2018-04-23T03:29:17.558Z,13.67
2018-04-23T03:31:10.502Z,13.71
2018-04-23T03:32:10.475Z,13.70
2018-04-23T03:34:03.461Z,13.59
2018-04-23T03:35:03.440Z,13.56
2018-04-23T03:36:56.384Z,13.52
2018-04-23T03:37:56.350Z,13.56
2018-04-23T03:39:49.347Z,13.43
2018-04-23T03:40:49.324Z,13.41
2018-04-23T03:42:42.229Z,13.44
2018-04-23T03:43:42.210Z,13.44
2018-04-23T03:45:35.130Z,13.55
2018-04-23T03:46:35.131Z,13.55
2018-04-23T03:48:28.105Z,13.63
2018-04-23T03:49:28.076Z,13.61
2018-04-23T03:51:21.052Z,13.56
2018-04-23T03:52:21.015Z,13.55
2018-04-23T03:55:05.007Z,13.51
2018-04-23T03:56:04.978Z,13.56
2018-04-23T03:57:57.949Z,13.52
2018-04-23T03:58:57.920Z,13.56
2018-04-23T04:00:50.933Z,13.46
2018-04-23T04:01:50.902Z,13.59
2018-04-23T04:03:43.821Z,13.56
2018-04-23T04:04:43.810Z,13.55
2018-04-23T04:06:36.722Z,13.52
2018-04-23T04:07:36.686Z,13.44
2018-04-23T04:09:29.669Z,13.40
2018-04-23T04:10:29.657Z,13.43
2018-04-23T04:12:22.605Z,13.41
2018-04-23T04:13:22.572Z,13.36
2018-04-23T04:16:06.604Z,13.32
2018-04-23T04:17:06.563Z,13.25
2018-04-23T04:18:06.550Z,13.27
2018-04-23T04:19:06.552Z,13.29
2018-04-23T04:20:06.551Z,13.25
2018-04-23T04:21:06.547Z,13.37
2018-04-23T04:22:06.537Z,13.33
2018-04-23T04:23:06.533Z,13.43
2018-04-23T04:24:06.531Z,13.47
2018-04-23T04:25:06.528Z,13.38
2018-04-23T04:26:06.523Z,13.43
2018-04-23T04:27:06.521Z,13.43
2018-04-23T04:28:06.520Z,13.47
2018-04-23T04:29:06.509Z,13.54
2018-04-23T04:30:06.522Z,13.59
2018-04-23T04:31:06.507Z,13.70
2018-04-23T04:32:06.502Z,13.83
2018-04-23T04:33:06.497Z,13.89
2018-04-23T04:34:06.497Z,13.96
2018-04-23T04:35:06.495Z,14.10
2018-04-23T04:36:06.485Z,14.12
2018-04-23T04:37:06.482Z,14.17
2018-04-23T04:38:06.484Z,14.19
2018-04-23T04:39:06.495Z,14.32
2018-04-23T04:40:06.484Z,14.32
2018-04-23T04:41:06.473Z,14.43
2018-04-23T04:42:06.473Z,14.38
2018-04-23T04:43:06.467Z,14.44
2018-04-23T04:44:06.471Z,14.42
2018-04-23T04:45:06.468Z,14.43
2018-04-23T04:46:06.459Z,14.46
2018-04-23T04:47:06.460Z,14.43
2018-04-23T04:48:06.450Z,14.42
2018-04-23T04:49:06.447Z,14.37
2018-04-23T04:50:06.447Z,14.27
2018-04-23T04:51:06.489Z,14.25
2018-04-23T04:52:06.488Z,14.20
2018-04-23T04:53:06.508Z,14.20
2018-04-23T04:54:06.436Z,14.21
2018-04-23T04:55:06.435Z,14.20
2018-04-23T04:56:06.426Z,14.31
2018-04-23T04:57:06.423Z,14.20
2018-04-23T04:58:06.419Z,14.39
2018-04-23T04:59:06.473Z,14.38
2018-04-23T05:00:06.481Z,14.60
2018-04-23T05:01:06.419Z,14.71
2018-04-23T05:02:06.410Z,14.64
2018-04-23T05:03:06.417Z,14.68
2018-04-23T05:04:06.407Z,14.86
2018-04-23T05:05:06.414Z,14.88
2018-04-23T05:06:06.405Z,14.91
2018-04-23T05:07:06.426Z,14.93
2018-04-23T05:08:06.396Z,14.94
2018-04-23T05:09:06.395Z,15.02
2018-04-23T05:10:06.400Z,15.05
2018-04-23T05:11:06.391Z,15.03
2018-04-23T05:12:06.396Z,15.06
2018-04-23T05:13:06.386Z,15.15
2018-04-23T05:14:06.382Z,15.23
2018-04-23T05:15:06.383Z,15.28
2018-04-23T05:16:06.378Z,15.36
2018-04-23T05:17:06.372Z,15.46
2018-04-23T05:18:06.376Z,15.46
2018-04-23T05:19:06.378Z,15.54
2018-04-23T05:20:06.364Z,15.64
2018-04-23T05:21:06.371Z,15.67
2018-04-23T05:22:06.372Z,15.72
2018-04-23T05:23:06.367Z,15.89
2018-04-23T05:24:06.358Z,15.97
2018-04-23T05:25:06.360Z,16.00
2018-04-23T05:26:06.358Z,16.11
2018-04-23T05:27:06.351Z,16.18
2018-04-23T05:28:06.346Z,16.16
2018-04-23T05:29:06.353Z,16.23
2018-04-23T05:30:06.354Z,16.45
2018-04-23T05:31:06.349Z,16.44
2018-04-23T05:32:06.351Z,16.53
2018-04-23T05:33:06.347Z,16.65
2018-04-23T05:34:06.342Z,16.75
2018-04-23T05:35:06.390Z,16.85
2018-04-23T05:36:06.347Z,16.90
2018-04-23T05:37:06.344Z,16.88
2018-04-23T05:38:06.344Z,16.77
2018-04-23T05:39:06.338Z,16.77
2018-04-23T05:40:06.331Z,16.75
2018-04-23T05:41:06.392Z,16.75
2018-04-23T05:42:06.401Z,16.92
2018-04-23T05:43:06.431Z,16.93
2018-04-23T05:44:06.428Z,16.85
2018-04-23T05:45:06.368Z,16.74
2018-04-23T05:46:06.360Z,16.85
2018-04-23T05:47:06.365Z,16.96
2018-04-23T05:48:06.370Z,16.96
2018-04-23T05:49:06.375Z,16.95
2018-04-23T05:50:06.391Z,17.08
2018-04-23T05:51:06.391Z,17.29
2018-04-23T05:52:06.374Z,17.33
2018-04-23T05:53:06.375Z,17.48
2018-04-23T05:54:06.363Z,17.50
2018-04-23T05:55:06.376Z,17.41
2018-04-23T05:56:06.376Z,17.50
2018-04-23T05:57:06.376Z,17.32
2018-04-23T05:58:06.373Z,17.23
2018-04-23T05:59:06.380Z,17.28
2018-04-23T06:00:06.384Z,17.55
2018-04-23T06:01:06.371Z,17.41
2018-04-23T06:02:06.394Z,17.55
2018-04-23T06:03:06.456Z,17.74
2018-04-23T06:04:06.395Z,17.76
2018-04-23T06:05:06.384Z,17.85
2018-04-23T06:06:06.346Z,18.02
2018-04-23T06:07:06.410Z,18.29
2018-04-23T06:08:06.386Z,18.52
2018-04-23T06:09:06.382Z,18.64
2018-04-23T06:10:06.387Z,18.52
2018-04-23T06:11:06.387Z,18.54
2018-04-23T06:12:06.390Z,18.54
2018-04-23T06:13:06.332Z,18.43
2018-04-23T06:14:06.388Z,18.52
2018-04-23T06:15:06.370Z,18.73
2018-04-23T06:16:06.398Z,18.77
2018-04-23T06:17:06.357Z,18.80
2018-04-23T06:18:06.361Z,18.86
2018-04-23T06:19:06.366Z,18.83
2018-04-23T06:20:06.376Z,18.95
2018-04-23T06:21:06.385Z,19.02
2018-04-23T06:22:06.389Z,19.29
2018-04-23T06:23:06.366Z,19.29
2018-04-23T06:24:06.370Z,19.40
2018-04-23T06:25:06.329Z,19.21
2018-04-23T06:26:06.341Z,19.36
2018-04-23T06:27:06.327Z,19.55
2018-04-23T06:28:06.339Z,19.54
2018-04-23T06:29:06.336Z,19.61
2018-04-23T06:30:06.342Z,19.69
2018-04-23T06:31:06.346Z,19.54
2018-04-23T06:32:06.358Z,19.60
2018-04-23T06:33:06.344Z,19.70
2018-04-23T06:34:06.378Z,19.58
2018-04-23T06:35:06.387Z,19.68
2018-04-23T06:36:06.354Z,19.58
2018-04-23T06:37:06.346Z,19.40
2018-04-23T06:38:06.410Z,19.40
2018-04-23T06:39:06.350Z,19.39
2018-04-23T06:40:06.357Z,19.32
2018-04-23T06:41:06.359Z,19.23
2018-04-23T06:42:06.377Z,19.25
2018-04-23T06:43:06.357Z,19.24
2018-04-23T06:44:06.356Z,18.97
2018-04-23T06:45:06.364Z,18.94
2018-04-23T06:46:06.367Z,19.18
2018-04-23T06:47:06.414Z,19.18
2018-04-23T06:48:06.362Z,19.06
2018-04-23T06:49:06.363Z,19.20
2018-04-23T06:50:06.369Z,19.20
2018-04-23T06:51:06.366Z,19.20
2018-04-23T06:52:06.382Z,19.02
2018-04-23T06:53:06.366Z,18.84
2018-04-23T06:54:06.364Z,18.87
2018-04-23T06:55:06.369Z,18.91
2018-04-23T06:56:06.369Z,19.14
2018-04-23T06:57:06.370Z,18.97
2018-04-23T06:58:06.448Z,18.98
2018-04-23T06:59:06.449Z,18.92
2018-04-23T07:00:06.439Z,19.08
2018-04-23T07:01:06.418Z,19.10
2018-04-23T07:02:06.412Z,19.39
2018-04-23T07:03:06.421Z,19.69
2018-04-23T07:04:06.425Z,19.88
2018-04-23T07:05:06.460Z,20.03
2018-04-23T07:06:06.413Z,20.49
2018-04-23T07:07:06.424Z,20.34
2018-04-23T07:08:06.386Z,20.49
2018-04-23T07:09:06.391Z,20.50
2018-04-23T07:10:06.396Z,20.90
2018-04-23T07:11:06.389Z,20.76
2018-04-23T07:12:06.389Z,20.89
2018-04-23T07:13:06.399Z,21.06
2018-04-23T07:14:06.407Z,21.42
2018-04-23T07:15:06.408Z,21.63
2018-04-23T07:16:06.402Z,21.36
2018-04-23T07:17:06.412Z,21.94
2018-04-23T07:18:06.405Z,21.99
2018-04-23T07:19:06.414Z,21.64
2018-04-23T07:20:06.413Z,21.72
2018-04-23T07:21:06.416Z,21.36
2018-04-23T07:22:06.421Z,21.39
2018-04-23T07:23:06.431Z,21.35
2018-04-23T07:24:06.440Z,21.23
2018-04-23T07:25:06.448Z,21.51
2018-04-23T07:26:06.439Z,22.19
2018-04-23T07:27:06.458Z,22.10
2018-04-23T07:28:06.440Z,22.47
2018-04-23T07:29:06.455Z,22.56
2018-04-23T07:30:06.454Z,23.17
2018-04-23T07:31:06.463Z,23.60
2018-04-23T07:32:06.465Z,23.42
2018-04-23T07:33:06.531Z,23.08
2018-04-23T07:34:06.520Z,22.78
2018-04-23T07:35:06.531Z,23.52
2018-04-23T07:36:06.521Z,24.04
2018-04-23T07:37:06.538Z,23.70
2018-04-23T07:38:06.535Z,24.00
2018-04-23T07:39:06.541Z,24.79
2018-04-23T07:40:06.547Z,25.64
2018-04-23T07:41:06.559Z,25.64
2018-04-23T07:42:06.586Z,25.67
2018-04-23T07:43:06.576Z,25.86
2018-04-23T07:44:06.582Z,25.84
2018-04-23T07:45:06.633Z,25.89
2018-04-23T07:46:06.636Z,25.71
2018-04-23T07:47:06.650Z,26.32
2018-04-23T07:48:06.660Z,26.72
2018-04-23T07:49:06.656Z,27.35
2018-04-23T07:50:06.625Z,27.79
2018-04-23T07:51:06.636Z,27.89
2018-04-23T07:52:06.645Z,28.01
2018-04-23T07:53:06.662Z,27.54
2018-04-23T07:54:06.677Z,27.66
2018-04-23T07:55:06.684Z,27.98
2018-04-23T07:56:06.683Z,27.98
2018-04-23T07:57:06.713Z,27.46
2018-04-23T07:58:07.041Z,27.64
2018-04-23T07:59:06.746Z,27.95
2018-04-23T08:00:06.746Z,28.40
2018-04-23T08:01:06.767Z,28.53
2018-04-23T08:02:06.779Z,28.26
2018-04-23T08:03:06.779Z,28.33
2018-04-23T08:04:06.797Z,28.68
2018-04-23T08:05:06.836Z,28.77
2018-04-23T08:06:06.829Z,28.78
2018-04-23T08:07:06.838Z,28.91
2018-04-23T08:08:06.853Z,29.26
2018-04-23T08:09:06.881Z,28.91
2018-04-23T08:10:06.887Z,29.18
2018-04-23T08:11:06.901Z,29.25
2018-04-23T08:12:06.916Z,29.25
2018-04-23T08:13:06.928Z,29.56
2018-04-23T08:14:06.945Z,30.11
2018-04-23T08:15:06.972Z,30.09
2018-04-23T08:16:06.993Z,29.62
2018-04-23T08:17:06.999Z,29.87
2018-04-23T08:18:07.016Z,29.92
2018-04-23T08:19:07.023Z,29.44
2018-04-23T08:20:07.039Z,29.18
2018-04-23T08:21:07.051Z,28.95
2018-04-23T08:22:07.068Z,29.79
2018-04-23T08:23:07.085Z,30.12
2018-04-23T08:24:07.108Z,29.49
2018-04-23T08:25:07.113Z,29.43
2018-04-23T08:26:07.127Z,29.45
2018-04-23T08:27:07.142Z,29.13
2018-04-23T08:28:07.170Z,29.93
2018-04-23T08:29:07.172Z,29.90
2018-04-23T08:30:07.190Z,29.89
2018-04-23T08:31:07.209Z,29.71
2018-04-23T08:32:07.229Z,30.14
2018-04-23T08:33:07.239Z,30.15
2018-04-23T08:34:07.256Z,29.45
2018-04-23T08:35:07.274Z,28.56
2018-04-23T08:36:07.288Z,28.72
2018-04-23T08:37:07.304Z,28.90
2018-04-23T08:38:07.343Z,29.38
2018-04-23T08:39:07.334Z,29.20
2018-04-23T08:40:07.345Z,29.65
2018-04-23T08:41:07.371Z,29.70
2018-04-23T08:42:07.401Z,30.11
2018-04-23T08:43:07.405Z,30.12
2018-04-23T08:44:07.427Z,30.21
2018-04-23T08:45:07.434Z,29.16
2018-04-23T08:46:07.462Z,29.34
2018-04-23T08:47:07.486Z,29.53
2018-04-23T08:48:07.494Z,29.66
2018-04-23T08:49:07.502Z,29.57
2018-04-23T08:50:07.515Z,29.68
2018-04-23T08:51:07.532Z,28.95
2018-04-23T08:52:07.545Z,27.91
2018-04-23T08:53:07.561Z,27.85
2018-04-23T08:54:07.579Z,28.43
2018-04-23T08:55:07.588Z,28.50
2018-04-23T08:56:07.609Z,28.66
2018-04-23T08:57:07.622Z,28.60
2018-04-23T08:58:07.627Z,28.43
2018-04-23T08:59:07.643Z,28.36
2018-04-23T09:00:07.671Z,28.56
2018-04-23T09:01:07.674Z,28.06
2018-04-23T09:02:07.695Z,28.16
2018-04-23T09:03:07.694Z,27.98
2018-04-23T09:04:07.713Z,27.84
2018-04-23T09:05:07.732Z,27.74
2018-04-23T09:06:07.731Z,27.41
2018-04-23T09:07:07.743Z,27.17
2018-04-23T09:08:07.751Z,27.23
2018-04-23T09:09:07.782Z,27.39
2018-04-23T09:10:07.790Z,27.21
2018-04-23T09:11:07.789Z,27.09
2018-04-23T09:12:07.808Z,26.89
2018-04-23T09:13:07.812Z,27.16
2018-04-23T09:14:07.824Z,27.73
2018-04-23T09:15:07.839Z,27.64
2018-04-23T09:16:07.862Z,28.21
2018-04-23T09:17:07.865Z,29.16
2018-04-23T09:18:07.881Z,29.72
2018-04-23T09:19:07.882Z,30.37
2018-04-23T09:20:07.894Z,30.53
2018-04-23T09:21:07.907Z,30.07
2018-04-23T09:22:07.929Z,29.96
2018-04-23T09:23:07.937Z,29.89
2018-04-23T09:24:07.945Z,30.62
2018-04-23T09:25:07.962Z,30.54
2018-04-23T09:26:07.988Z,30.81
2018-04-23T09:27:07.997Z,30.56
2018-04-23T09:28:08.006Z,30.72
2018-04-23T09:29:08.024Z,31.33
2018-04-23T09:30:08.037Z,31.64
2018-04-23T09:31:08.048Z,31.18
2018-04-23T09:32:08.062Z,31.28
2018-04-23T09:33:08.087Z,31.05
2018-04-23T09:34:08.106Z,30.53
2018-04-23T09:35:08.114Z,30.76
2018-04-23T09:36:08.132Z,30.54
2018-04-23T09:37:08.146Z,30.89
2018-04-23T09:38:08.160Z,31.01
2018-04-23T09:39:08.230Z,31.15
2018-04-23T09:40:08.193Z,31.33
2018-04-23T09:41:08.212Z,31.27
2018-04-23T09:42:08.227Z,30.38
2018-04-23T09:43:08.243Z,29.70
2018-04-23T09:44:08.258Z,29.04
2018-04-23T09:45:08.286Z,28.91
2018-04-23T09:46:08.284Z,28.72
2018-04-23T09:47:08.319Z,28.90
2018-04-23T09:48:08.317Z,29.26
2018-04-23T09:49:08.377Z,29.49
2018-04-23T09:50:08.385Z,29.63
2018-04-23T09:51:08.382Z,29.49
2018-04-23T09:52:08.379Z,28.46
2018-04-23T09:53:08.390Z,28.19
2018-04-23T09:54:08.403Z,28.04
2018-04-23T09:55:08.419Z,28.07
2018-04-23T09:56:08.437Z,28.04
2018-04-23T09:57:08.448Z,27.89
2018-04-23T09:58:08.511Z,27.89
2018-04-23T09:59:08.472Z,28.14
2018-04-23T10:00:08.493Z,28.04
2018-04-23T10:01:08.503Z,27.99
2018-04-23T10:02:08.513Z,27.67
2018-04-23T10:03:08.529Z,26.94
2018-04-23T10:04:08.530Z,27.05
2018-04-23T10:05:08.550Z,27.02
2018-04-23T10:06:08.610Z,26.72
2018-04-23T10:07:08.580Z,26.39
2018-04-23T10:08:08.598Z,26.72
2018-04-23T10:09:08.590Z,26.62
2018-04-23T10:10:08.609Z,26.52
2018-04-23T10:11:08.618Z,26.59
2018-04-23T10:12:08.649Z,26.69
2018-04-23T10:13:08.642Z,26.50
2018-04-23T10:14:08.661Z,26.12
2018-04-23T10:15:08.661Z,26.47
2018-04-23T10:16:08.681Z,25.89
2018-04-23T10:17:08.684Z,25.19
2018-04-23T10:18:08.705Z,25.39
2018-04-23T10:19:08.710Z,25.39
2018-04-23T10:20:08.718Z,25.49
2018-04-23T10:21:08.722Z,26.02
2018-04-23T10:22:08.735Z,26.27
2018-04-23T10:23:08.772Z,26.37
2018-04-23T10:24:08.758Z,26.57
2018-04-23T10:25:08.770Z,26.62
2018-04-23T10:26:08.795Z,26.73
2018-04-23T10:27:08.808Z,26.59
2018-04-23T10:28:08.796Z,26.67
2018-04-23T10:29:08.826Z,26.54
2018-04-23T10:30:08.816Z,26.06
2018-04-23T10:31:08.825Z,25.31
2018-04-23T10:32:08.838Z,25.31
2018-04-23T10:33:08.851Z,24.85
2018-04-23T10:34:08.857Z,25.02
2018-04-23T10:35:08.858Z,25.37
2018-04-23T10:36:08.870Z,25.31
2018-04-23T10:37:08.905Z,25.38
2018-04-23T10:38:08.909Z,25.74
2018-04-23T10:39:08.903Z,25.83
2018-04-23T10:40:08.914Z,25.87
2018-04-23T10:41:08.919Z,26.06
2018-04-23T10:42:08.936Z,26.31
2018-04-23T10:43:09.006Z,26.27
2018-04-23T10:44:08.952Z,25.97
2018-04-23T10:45:08.956Z,25.87
2018-04-23T10:46:08.971Z,26.05
2018-04-23T10:47:08.976Z,26.35
2018-04-23T10:48:08.983Z,26.65
2018-04-23T10:49:08.995Z,27.10
2018-04-23T10:50:09.014Z,27.20
2018-04-23T10:51:09.090Z,27.46
2018-04-23T10:52:09.083Z,27.70
2018-04-23T10:53:09.029Z,28.68
2018-04-23T10:54:09.037Z,29.22
2018-04-23T10:55:09.047Z,28.58
2018-04-23T10:56:09.053Z,28.11
2018-04-23T10:57:09.071Z,28.09
2018-04-23T10:58:09.081Z,27.70
2018-04-23T10:59:09.095Z,27.70
2018-04-23T11:00:09.106Z,27.29
2018-04-23T11:01:09.114Z,27.28
2018-04-23T11:02:09.127Z,27.94
2018-04-23T11:03:09.143Z,28.26
2018-04-23T11:04:09.151Z,28.63
2018-04-23T11:05:09.158Z,29.55
2018-04-23T11:06:09.172Z,30.45
2018-04-23T11:07:09.187Z,30.19
2018-04-23T11:08:09.229Z,29.60
2018-04-23T11:09:09.223Z,29.29
2018-04-23T11:10:09.230Z,29.92
2018-04-23T11:11:09.247Z,30.26
2018-04-23T11:12:09.264Z,30.30
2018-04-23T11:13:09.319Z,29.45
2018-04-23T11:14:09.318Z,29.71
2018-04-23T11:15:09.330Z,29.82
2018-04-23T11:16:09.346Z,30.05
2018-04-23T11:17:09.361Z,29.06
2018-04-23T11:18:09.363Z,28.65
2018-04-23T11:19:09.445Z,28.62
2018-04-23T11:20:09.453Z,28.54
2018-04-23T11:21:09.483Z,28.91
2018-04-23T11:22:09.479Z,29.33
2018-04-23T11:23:09.470Z,29.37
2018-04-23T11:24:09.487Z,29.68
2018-04-23T11:25:09.479Z,29.78
2018-04-23T11:26:09.514Z,30.40
2018-04-23T11:27:09.522Z,30.81
2018-04-23T11:28:09.559Z,31.61
2018-04-23T11:29:09.547Z,31.23
2018-04-23T11:30:09.621Z,29.81
2018-04-23T11:31:09.627Z,29.45
2018-04-23T11:32:09.635Z,30.15
2018-04-23T11:33:09.634Z,30.56
2018-04-23T11:34:09.649Z,30.91
2018-04-23T11:35:09.647Z,31.05
2018-04-23T11:36:09.654Z,30.81
2018-04-23T11:37:09.682Z,30.15
2018-04-23T11:38:09.691Z,30.71
2018-04-23T11:39:09.732Z,31.20
2018-04-23T11:40:09.801Z,31.77
2018-04-23T11:41:09.804Z,32.05
2018-04-23T11:42:09.765Z,32.66
2018-04-23T11:43:09.834Z,32.81
2018-04-23T11:44:09.827Z,32.99
2018-04-23T11:45:09.887Z,33.46
2018-04-23T11:46:09.859Z,33.67
2018-04-23T11:47:09.890Z,33.80
2018-04-23T11:48:09.897Z,34.19
2018-04-23T11:49:09.899Z,33.51
2018-04-23T11:50:09.968Z,33.36
2018-04-23T11:51:09.966Z,32.98
2018-04-23T11:52:09.994Z,32.81
2018-04-23T11:53:10.056Z,32.81
2018-04-23T11:54:09.985Z,32.52
2018-04-23T11:55:10.025Z,32.29
2018-04-23T11:56:10.028Z,32.84
2018-04-23T11:57:10.070Z,33.39
2018-04-23T11:58:10.081Z,33.82
2018-04-23T11:59:10.118Z,34.44
2018-04-23T12:00:10.119Z,34.91
2018-04-23T12:01:10.180Z,34.11
2018-04-23T12:02:10.146Z,33.90
2018-04-23T12:03:10.151Z,33.64
2018-04-23T12:04:10.154Z,32.57
2018-04-23T12:05:10.172Z,32.02
2018-04-23T12:06:10.191Z,31.65
2018-04-23T12:07:10.211Z,31.35
2018-04-23T12:08:10.227Z,31.06
2018-04-23T12:09:10.285Z,31.20
2018-04-23T12:10:10.300Z,31.23
2018-04-23T12:11:10.286Z,30.90
2018-04-23T12:12:10.289Z,31.06
2018-04-23T12:13:10.337Z,30.93
2018-04-23T12:14:10.330Z,31.05
2018-04-23T12:15:10.339Z,30.86
2018-04-23T12:16:10.371Z,30.94
2018-04-23T12:17:10.380Z,30.61
2018-04-23T12:18:10.391Z,30.23
2018-04-23T12:19:10.394Z,29.89
2018-04-23T12:20:10.418Z,29.87
2018-04-23T12:21:10.441Z,29.71
2018-04-23T12:22:10.448Z,29.89
2018-04-23T12:23:10.508Z,29.74
2018-04-23T12:24:10.518Z,29.81
2018-04-23T12:25:10.490Z,29.53
2018-04-23T12:26:10.524Z,29.79
2018-04-23T12:27:10.511Z,29.96
2018-04-23T12:28:10.528Z,29.89
2018-04-23T12:29:11.175Z,29.99
2018-04-23T12:30:10.558Z,29.77
2018-04-23T12:31:10.584Z,29.86
2018-04-23T12:32:10.592Z,29.93
2018-04-23T12:33:10.590Z,29.15
2018-04-23T12:34:10.609Z,27.54
2018-04-23T12:35:10.616Z,26.59
2018-04-23T12:36:10.679Z,26.09
2018-04-23T12:37:10.646Z,24.75
2018-04-23T12:38:10.662Z,23.83
2018-04-23T12:39:10.661Z,23.02
2018-04-23T12:40:10.687Z,22.32
2018-04-23T12:41:10.718Z,22.19
2018-04-23T12:42:10.696Z,21.79
2018-04-23T12:43:10.704Z,21.78
2018-04-23T12:44:10.724Z,21.34
2018-04-23T12:45:10.730Z,21.32
2018-04-23T12:46:10.795Z,21.48
2018-04-23T12:47:10.754Z,21.24
2018-04-23T12:48:10.755Z,21.24
2018-04-23T12:49:10.769Z,20.96
2018-04-23T12:50:10.777Z,20.77
2018-04-23T12:51:10.784Z,20.83
2018-04-23T12:52:10.838Z,21.05
2018-04-23T12:53:10.806Z,21.26
2018-04-23T12:54:10.917Z,21.48
2018-04-23T12:55:10.822Z,21.20
2018-04-23T12:56:10.824Z,21.26
2018-04-23T12:57:10.832Z,21.09
2018-04-23T12:58:10.837Z,21.32
2018-04-23T12:59:10.846Z,21.39
2018-04-23T13:00:10.865Z,21.42
2018-04-23T13:01:10.883Z,21.53
2018-04-23T13:02:10.862Z,21.36
2018-04-23T13:03:10.871Z,21.34
2018-04-23T13:04:10.876Z,21.24
2018-04-23T13:05:10.954Z,21.19
2018-04-23T13:06:10.892Z,21.30
2018-04-23T13:07:10.896Z,21.23
2018-04-23T13:08:10.905Z,21.09
2018-04-23T13:09:10.920Z,21.09
2018-04-23T13:10:10.922Z,21.27
2018-04-23T13:11:10.925Z,21.53
2018-04-23T13:12:10.926Z,21.46
2018-04-23T13:13:11.035Z,21.61
2018-04-23T13:14:11.028Z,21.64
2018-04-23T13:15:10.946Z,21.45
2018-04-23T13:16:11.026Z,21.48
2018-04-23T13:17:11.123Z,21.30
2018-04-23T13:18:10.970Z,21.51
2018-04-23T13:19:10.963Z,21.75
2018-04-23T13:20:10.974Z,21.60
2018-04-23T13:21:10.981Z,21.61
2018-04-23T13:22:10.991Z,21.81
2018-04-23T13:23:10.997Z,21.38
2018-04-23T13:24:11.006Z,21.36
2018-04-23T13:25:11.043Z,21.63
2018-04-23T13:26:11.012Z,22.04
2018-04-23T13:27:11.020Z,22.19
2018-04-23T13:28:11.027Z,21.99
2018-04-23T13:29:11.025Z,21.71
2018-04-23T13:30:11.058Z,21.56
2018-04-23T13:31:11.065Z,21.45
2018-04-23T13:32:11.056Z,21.44
2018-04-23T13:33:11.069Z,21.30
2018-04-23T13:34:11.091Z,21.05
2018-04-23T13:35:11.077Z,20.87
2018-04-23T13:36:11.119Z,21.04
2018-04-23T13:37:11.115Z,21.08
2018-04-23T13:38:11.090Z,20.49
2018-04-23T13:39:11.105Z,20.62
2018-04-23T13:40:11.118Z,20.47
2018-04-23T13:41:11.116Z,20.20
2018-04-23T13:42:11.113Z,20.34
2018-04-23T13:43:11.124Z,20.30
2018-04-23T13:44:11.139Z,20.25
2018-04-23T13:45:11.152Z,20.41
2018-04-23T13:46:11.145Z,20.58
2018-04-23T13:47:11.151Z,20.50
2018-04-23T13:48:11.158Z,20.24
2018-04-23T13:49:11.145Z,20.12
2018-04-23T13:50:11.196Z,20.18
2018-04-23T13:51:12.083Z,20.35
2018-04-23T13:52:12.083Z,20.20
2018-04-23T13:53:12.079Z,20.08
2018-04-23T13:54:11.169Z,20.30
2018-04-23T13:55:11.203Z,20.09
2018-04-23T13:56:11.272Z,20.09
2018-04-23T13:57:11.210Z,20.02
2018-04-23T13:58:11.222Z,20.23
2018-04-23T13:59:11.266Z,20.21
2018-04-23T14:00:11.237Z,20.21
2018-04-23T14:01:11.253Z,20.38
2018-04-23T14:02:11.244Z,20.53
2018-04-23T14:03:11.149Z,20.51
2018-04-23T14:04:11.158Z,20.30
2018-04-23T14:05:11.155Z,20.34
2018-04-23T14:06:11.162Z,20.41
2018-04-23T14:07:11.174Z,20.41
2018-04-23T14:08:11.159Z,20.33